Аэропорт: Сокол. Магадан

ICAO: UHMM

METAR:
2021-01-24 18:00:00
UHMM 241800Z 07003MPS 340V110 9999 NSC M30/M35 Q1017 RMK QFE748 R28/08004MPS
METAR:
2021-01-24 16:52:00
TAF UHMM 241652Z 2418/2524 08003G09MPS 9999 SCT040 TEMPO 2418/2502 3100 BR FEW011